Time;durP1;ratioP1;P1;durP2;ratioP2;P2;SDS_P1;SDS_P2;PMS_P1;PMS_P2;Temp;Humidity;BMP_temperature;BMP_pressure;BME280_temperature;BME280_humidity;BME280_pressure;Samples;Min_cycle;Max_cycle;Signal;HPM_P1;HPM_P2
2022/05/28 00:00:17;;;;;;;11.57;1.50;;;;;;;;;;4932125;29;20059;-70
2022/05/28 00:02:46;;;;;;;10.65;1.90;;;;;;;;;;4933219;29;20059;-70
2022/05/28 00:05:13;;;;;;;9.68;1.88;;;;;;;;;;4931484;29;20051;-69
2022/05/28 00:07:41;;;;;;;9.52;1.80;;;;;;;;;;4933178;29;20062;-69
2022/05/28 00:10:09;;;;;;;13.20;2.75;;;;;;;;;;4930521;29;20458;-69
2022/05/28 00:12:36;;;;;;;12.48;1.90;;;;;;;;;;4932796;29;20534;-69
2022/05/28 00:15:03;;;;;;;9.25;1.70;;;;;;;;;;4932930;29;20066;-69
2022/05/28 00:17:30;;;;;;;8.32;2.10;;;;;;;;;;4947398;29;20414;-69
2022/05/28 00:19:59;;;;;;;14.45;2.10;;;;;;;;;;4935757;28;20058;-69
2022/05/28 00:22:26;;;;;;;14.70;2.40;;;;;;;;;;4931270;29;20518;-69
2022/05/28 00:24:53;;;;;;;10.95;1.75;;;;;;;;;;4931065;29;20063;-69
2022/05/28 00:27:21;;;;;;;13.38;1.58;;;;;;;;;;4932230;29;20063;-69
2022/05/28 00:29:48;;;;;;;12.35;2.08;;;;;;;;;;4933209;29;20478;-69
2022/05/28 00:32:15;;;;;;;13.18;2.05;;;;;;;;;;4932328;29;20386;-69
2022/05/28 00:34:42;;;;;;;18.92;2.28;;;;;;;;;;4930167;29;20594;-70
2022/05/28 00:37:11;;;;;;;16.48;2.10;;;;;;;;;;4932139;29;20816;-70
2022/05/28 00:39:38;;;;;;;10.95;2.08;;;;;;;;;;4931889;29;20047;-70
2022/05/28 00:42:06;;;;;;;13.50;1.85;;;;;;;;;;4927549;29;20122;-70
2022/05/28 00:44:33;;;;;;;13.05;1.98;;;;;;;;;;4926607;29;20134;-70
2022/05/28 00:47:00;;;;;;;17.88;1.67;;;;;;;;;;4930434;29;20800;-70
2022/05/28 00:49:29;;;;;;;14.52;2.00;;;;;;;;;;4928566;29;20102;-69
2022/05/28 00:51:59;;;;;;;7.53;1.60;;;;;;;;;;4926494;29;20049;-69
2022/05/28 00:54:28;;;;;;;10.75;1.50;;;;;;;;;;4926975;29;20082;-70
2022/05/28 00:56:56;;;;;;;13.82;2.17;;;;;;;;;;4926540;29;20051;-70
2022/05/28 00:59:23;;;;;;;11.98;2.17;;;;;;;;;;4929127;29;20102;-70
2022/05/28 01:01:50;;;;;;;8.73;1.80;;;;;;;;;;4933064;28;20113;-70
2022/05/28 01:04:23;;;;;;;9.82;1.80;;;;;;;;;;4923472;29;20365;-70
2022/05/28 01:06:58;;;;;;;12.32;2.13;;;;;;;;;;4925406;29;20051;-70
2022/05/28 01:09:31;;;;;;;14.32;2.13;;;;;;;;;;4920892;29;20123;-70
2022/05/28 01:12:05;;;;;;;6.93;1.52;;;;;;;;;;4926640;29;20110;-70
2022/05/28 01:14:34;;;;;;;11.82;1.60;;;;;;;;;;4924511;29;20047;-70
2022/05/28 01:17:06;;;;;;;12.05;1.73;;;;;;;;;;4926027;29;20107;-69
2022/05/28 01:19:38;;;;;;;15.77;2.08;;;;;;;;;;4929290;29;20043;-70
2022/05/28 01:22:11;;;;;;;12.70;2.10;;;;;;;;;;4924758;29;20047;-70
2022/05/28 01:24:46;;;;;;;12.43;1.52;;;;;;;;;;4924296;29;20375;-70
2022/05/28 01:27:16;;;;;;;10.98;2.13;;;;;;;;;;4927477;29;20055;-70
2022/05/28 01:29:46;;;;;;;12.55;1.63;;;;;;;;;;4929296;29;20494;-70
2022/05/28 01:32:14;;;;;;;16.08;2.40;;;;;;;;;;4929946;29;20114;-70
2022/05/28 01:34:43;;;;;;;13.63;2.13;;;;;;;;;;4926770;29;20060;-70
2022/05/28 01:37:11;;;;;;;13.23;2.28;;;;;;;;;;4929321;29;20058;-69
2022/05/28 01:39:38;;;;;;;11.98;2.00;;;;;;;;;;4927698;29;20517;-69
2022/05/28 01:42:06;;;;;;;10.32;1.92;;;;;;;;;;4926754;29;20656;-69
2022/05/28 01:44:35;;;;;;;11.60;1.80;;;;;;;;;;4928448;29;20058;-69
2022/05/28 01:47:02;;;;;;;16.27;2.70;;;;;;;;;;4928528;29;20066;-69
2022/05/28 01:49:30;;;;;;;14.25;1.98;;;;;;;;;;4930143;29;20050;-69
2022/05/28 01:52:00;;;;;;;14.00;2.10;;;;;;;;;;4930306;29;20063;-69
2022/05/28 01:54:29;;;;;;;6.40;1.33;;;;;;;;;;4930603;29;20047;-69
2022/05/28 01:56:57;;;;;;;13.02;2.25;;;;;;;;;;4930224;29;20059;-69
2022/05/28 01:59:24;;;;;;;11.85;1.65;;;;;;;;;;4930642;29;20043;-69
2022/05/28 02:01:53;;;;;;;9.55;1.80;;;;;;;;;;4928915;29;20102;-69
2022/05/28 02:04:21;;;;;;;11.95;1.90;;;;;;;;;;4942693;29;20047;-69
2022/05/28 02:06:48;;;;;;;18.50;2.40;;;;;;;;;;4929532;29;20059;-69
2022/05/28 02:09:16;;;;;;;17.75;2.13;;;;;;;;;;4928728;29;20479;-69
2022/05/28 02:11:59;;;;;;;15.70;2.20;;;;;;;;;;4930638;29;20574;-69
2022/05/28 02:14:29;;;;;;;14.70;2.42;;;;;;;;;;4928484;29;20066;-69
2022/05/28 02:17:02;;;;;;;15.98;2.78;;;;;;;;;;4927653;29;20150;-69
2022/05/28 02:19:29;;;;;;;;;;;;;;;;;;4924570;29;20062;-69
2022/05/28 02:21:58;;;;;;;13.55;2.30;;;;;;;;;;4930600;29;19989;-69
2022/05/28 02:24:31;;;;;;;14.90;2.42;;;;;;;;;;4932947;29;20063;-69
2022/05/28 02:27:01;;;;;;;15.45;2.13;;;;;;;;;;4930690;29;20102;-69
2022/05/28 02:29:30;;;;;;;18.05;2.30;;;;;;;;;;4933140;29;20115;-70
2022/05/28 02:31:58;;;;;;;17.52;2.72;;;;;;;;;;4933371;29;20413;-70
2022/05/28 02:34:26;;;;;;;15.48;2.63;;;;;;;;;;4933728;29;20055;-70
2022/05/28 02:36:54;;;;;;;16.05;3.05;;;;;;;;;;4933179;29;20059;-70
2022/05/28 02:39:21;;;;;;;17.40;2.33;;;;;;;;;;4933335;29;20043;-70
2022/05/28 02:41:48;;;;;;;20.02;3.28;;;;;;;;;;4950987;29;20098;-69
2022/05/28 02:44:15;;;;;;;15.57;2.22;;;;;;;;;;4932769;29;20062;-69
2022/05/28 02:46:42;;;;;;;14.80;2.53;;;;;;;;;;4933761;29;20059;-69
2022/05/28 02:49:11;;;;;;;14.90;2.08;;;;;;;;;;4932942;29;20063;-69
2022/05/28 02:51:38;;;;;;;19.20;2.50;;;;;;;;;;4932672;29;20102;-69
2022/05/28 02:54:05;;;;;;;17.98;2.55;;;;;;;;;;4946558;29;20047;-69
2022/05/28 02:56:32;;;;;;;14.07;2.78;;;;;;;;;;4947229;29;20118;-69
2022/05/28 02:59:00;;;;;;;20.40;2.85;;;;;;;;;;4931777;29;20047;-69
2022/05/28 03:01:28;;;;;;;17.10;2.30;;;;;;;;;;4932109;29;20055;-69
2022/05/28 03:03:57;;;;;;;15.70;2.22;;;;;;;;;;4932039;29;20435;-69
2022/05/28 03:06:25;;;;;;;17.58;2.55;;;;;;;;;;4932830;29;20047;-69
2022/05/28 03:08:53;;;;;;;15.90;2.47;;;;;;;;;;4929176;29;20051;-69
2022/05/28 03:11:20;;;;;;;17.80;2.33;;;;;;;;;;4926292;29;20063;-69
2022/05/28 03:13:48;;;;;;;20.88;2.83;;;;;;;;;;4926088;29;20055;-69
2022/05/28 03:16:15;;;;;;;18.95;3.47;;;;;;;;;;4929447;29;20105;-69
2022/05/28 03:18:42;;;;;;;18.35;2.75;;;;;;;;;;4932097;29;20051;-69
2022/05/28 03:21:10;;;;;;;13.25;2.45;;;;;;;;;;4929052;29;20428;-69
2022/05/28 03:23:38;;;;;;;15.85;2.78;;;;;;;;;;4929770;29;20058;-69
2022/05/28 03:26:13;;;;;;;12.05;1.98;;;;;;;;;;4930619;29;20047;-69
2022/05/28 03:28:40;;;;;;;10.95;2.47;;;;;;;;;;4930875;29;20057;-69
2022/05/28 03:31:07;;;;;;;14.65;2.88;;;;;;;;;;4930864;29;20051;-69
2022/05/28 03:33:34;;;;;;;11.95;2.65;;;;;;;;;;4949648;29;20039;-69
2022/05/28 03:36:01;;;;;;;14.02;2.08;;;;;;;;;;4932712;29;20067;-69
2022/05/28 03:38:28;;;;;;;15.40;2.35;;;;;;;;;;4946235;29;20058;-69
2022/05/28 03:40:58;;;;;;;20.73;2.92;;;;;;;;;;4932111;29;20050;-69
2022/05/28 03:43:25;;;;;;;21.67;2.92;;;;;;;;;;4927985;29;20536;-69
2022/05/28 03:45:52;;;;;;;20.30;2.65;;;;;;;;;;4930321;29;20048;-69
2022/05/28 03:48:20;;;;;;;17.90;2.78;;;;;;;;;;4932083;29;20749;-69
2022/05/28 03:50:47;;;;;;;19.23;2.65;;;;;;;;;;4933318;28;20047;-69
2022/05/28 03:53:15;;;;;;;18.42;2.67;;;;;;;;;;4931524;29;20466;-69
2022/05/28 03:55:43;;;;;;;16.70;2.47;;;;;;;;;;4930778;29;20110;-69
2022/05/28 03:58:11;;;;;;;22.58;2.80;;;;;;;;;;4930325;29;20487;-69
2022/05/28 04:00:39;;;;;;;15.00;2.70;;;;;;;;;;4931347;29;20062;-69
2022/05/28 04:03:07;;;;;;;13.18;2.40;;;;;;;;;;4931816;29;20065;-69
2022/05/28 04:05:34;;;;;;;23.15;3.22;;;;;;;;;;4928779;29;20130;-69
2022/05/28 04:08:01;;;;;;;23.38;3.38;;;;;;;;;;4932036;29;20372;-69
2022/05/28 04:10:28;;;;;;;18.40;3.30;;;;;;;;;;4928215;29;20062;-70
2022/05/28 04:12:55;;;;;;;16.55;3.25;;;;;;;;;;4932148;29;20097;-70
2022/05/28 04:15:27;;;;;;;15.13;2.53;;;;;;;;;;4947374;28;20063;-70
2022/05/28 04:17:54;;;;;;;24.40;3.20;;;;;;;;;;4931207;29;20055;-70
2022/05/28 04:20:21;;;;;;;14.93;2.47;;;;;;;;;;4929132;29;21854;-70
2022/05/28 04:22:48;;;;;;;18.13;3.40;;;;;;;;;;4931014;29;20059;-70
2022/05/28 04:25:15;;;;;;;23.33;3.00;;;;;;;;;;4925806;29;20447;-70
2022/05/28 04:27:43;;;;;;;17.92;3.03;;;;;;;;;;4931924;29;20513;-70
2022/05/28 04:30:11;;;;;;;19.13;3.17;;;;;;;;;;4927777;29;20055;-70
2022/05/28 04:32:39;;;;;;;19.98;3.05;;;;;;;;;;4930226;28;20428;-70
2022/05/28 04:35:07;;;;;;;24.35;3.42;;;;;;;;;;4927694;29;20054;-70
2022/05/28 04:37:34;;;;;;;23.10;3.88;;;;;;;;;;4927888;29;20055;-70
2022/05/28 04:40:01;;;;;;;17.13;2.75;;;;;;;;;;4926175;29;20047;-70
2022/05/28 04:42:28;;;;;;;17.33;2.97;;;;;;;;;;4931897;29;20111;-70
2022/05/28 04:44:56;;;;;;;21.40;2.92;;;;;;;;;;4927088;29;20499;-70
2022/05/28 04:47:23;;;;;;;18.35;3.33;;;;;;;;;;4930221;29;20598;-69
2022/05/28 04:49:52;;;;;;;14.50;3.00;;;;;;;;;;4942063;29;20062;-69
2022/05/28 04:52:20;;;;;;;23.67;3.13;;;;;;;;;;4928298;29;20059;-70
2022/05/28 04:54:47;;;;;;;15.95;2.30;;;;;;;;;;4928883;29;20055;-70
2022/05/28 04:57:15;;;;;;;20.77;2.70;;;;;;;;;;4930974;29;20055;-70
2022/05/28 04:59:43;;;;;;;18.40;2.67;;;;;;;;;;4928733;29;20102;-70
2022/05/28 05:02:10;;;;;;;16.92;2.60;;;;;;;;;;4929492;29;20113;-70
2022/05/28 05:04:37;;;;;;;15.45;2.63;;;;;;;;;;4930559;29;20075;-70
2022/05/28 05:07:06;;;;;;;16.67;2.63;;;;;;;;;;4929362;29;20066;-70
2022/05/28 05:09:33;;;;;;;18.95;3.13;;;;;;;;;;4930458;29;20054;-70
2022/05/28 05:12:00;;;;;;;23.42;3.08;;;;;;;;;;4927611;29;20051;-70
2022/05/28 05:14:28;;;;;;;15.60;2.92;;;;;;;;;;4926993;29;20054;-70
2022/05/28 05:16:55;;;;;;;18.85;2.75;;;;;;;;;;4930284;29;20119;-70
2022/05/28 05:19:22;;;;;;;16.70;2.75;;;;;;;;;;4926996;29;20062;-70
2022/05/28 05:21:49;;;;;;;23.65;3.20;;;;;;;;;;4924357;29;20052;-70
2022/05/28 05:24:18;;;;;;;17.17;2.90;;;;;;;;;;4926000;29;20059;-70
2022/05/28 05:26:45;;;;;;;21.25;2.88;;;;;;;;;;4931301;29;20059;-70
2022/05/28 05:29:12;;;;;;;20.23;3.35;;;;;;;;;;4927980;29;20126;-70
2022/05/28 05:31:40;;;;;;;13.93;2.63;;;;;;;;;;4930255;29;20416;-70
2022/05/28 05:34:07;;;;;;;20.40;2.78;;;;;;;;;;4923587;29;20502;-70
2022/05/28 05:36:35;;;;;;;19.95;2.65;;;;;;;;;;4922731;29;20052;-70
2022/05/28 05:39:02;;;;;;;21.17;3.10;;;;;;;;;;4919966;29;20067;-70
2022/05/28 05:41:30;;;;;;;20.52;3.58;;;;;;;;;;4922766;29;20384;-70
2022/05/28 05:43:58;;;;;;;24.02;3.53;;;;;;;;;;4925004;29;20122;-70
2022/05/28 05:46:25;;;;;;;14.70;2.65;;;;;;;;;;4922310;29;20059;-70
2022/05/28 05:48:52;;;;;;;20.52;3.40;;;;;;;;;;4926830;29;20062;-70
2022/05/28 05:51:19;;;;;;;22.65;3.72;;;;;;;;;;4930970;29;20134;-70
2022/05/28 05:53:46;;;;;;;22.88;3.03;;;;;;;;;;4932108;29;20059;-70
2022/05/28 05:56:14;;;;;;;19.08;2.75;;;;;;;;;;4933684;29;20066;-70
2022/05/28 05:58:42;;;;;;;18.35;3.40;;;;;;;;;;4932033;29;20075;-70
2022/05/28 06:01:10;;;;;;;15.93;2.70;;;;;;;;;;4933798;29;20051;-70
2022/05/28 06:03:38;;;;;;;19.38;3.50;;;;;;;;;;4932200;29;20050;-70
2022/05/28 06:06:06;;;;;;;15.05;2.67;;;;;;;;;;4933972;29;20145;-70
2022/05/28 06:08:34;;;;;;;26.23;3.70;;;;;;;;;;4931572;29;20097;-70
2022/05/28 06:11:01;;;;;;;16.50;2.40;;;;;;;;;;4924269;29;20059;-70
2022/05/28 06:13:28;;;;;;;18.02;3.08;;;;;;;;;;4944983;29;20049;-70
2022/05/28 06:15:57;;;;;;;20.67;4.30;;;;;;;;;;4919959;28;20074;-70
2022/05/28 06:18:24;;;;;;;18.58;3.63;;;;;;;;;;4930824;29;20466;-70
2022/05/28 06:20:51;;;;;;;16.80;3.00;;;;;;;;;;4932864;29;20047;-70
2022/05/28 06:23:18;;;;;;;20.90;3.55;;;;;;;;;;4932519;29;20140;-70
2022/05/28 06:25:46;;;;;;;22.23;3.75;;;;;;;;;;4932631;29;20095;-70
2022/05/28 06:28:13;;;;;;;20.80;3.05;;;;;;;;;;4933270;29;20051;-70
2022/05/28 06:30:40;;;;;;;19.23;3.05;;;;;;;;;;4934156;29;20063;-70
2022/05/28 06:33:09;;;;;;;25.75;3.58;;;;;;;;;;4924240;29;20514;-70
2022/05/28 06:35:36;;;;;;;16.13;2.85;;;;;;;;;;4929756;29;20055;-70
2022/05/28 06:38:03;;;;;;;19.80;3.78;;;;;;;;;;4926262;29;20463;-70
2022/05/28 06:40:31;;;;;;;19.90;3.67;;;;;;;;;;4926743;29;20066;-70
2022/05/28 06:42:58;;;;;;;30.75;3.38;;;;;;;;;;4925538;29;20047;-69
2022/05/28 06:45:26;;;;;;;20.58;2.90;;;;;;;;;;4929947;29;20059;-70
2022/05/28 06:47:53;;;;;;;22.40;3.08;;;;;;;;;;4922107;29;20127;-71
2022/05/28 06:53:08;;;;;;;21.17;3.58;;;;;;;;;;4923732;29;20097;-70
2022/05/28 06:55:36;;;;;;;19.38;3.08;;;;;;;;;;4927498;29;20133;-71
2022/05/28 06:58:03;;;;;;;19.42;2.95;;;;;;;;;;4920554;29;20067;-71
2022/05/28 07:00:30;;;;;;;18.00;3.40;;;;;;;;;;4935696;28;20514;-70
2022/05/28 07:02:58;;;;;;;23.10;4.03;;;;;;;;;;4927121;29;20055;-70
2022/05/28 07:05:28;;;;;;;21.55;3.53;;;;;;;;;;4925993;29;20047;-70
2022/05/28 07:07:55;;;;;;;21.70;2.85;;;;;;;;;;4925600;29;20059;-70
2022/05/28 07:10:22;;;;;;;19.27;3.22;;;;;;;;;;4922012;29;20063;-70
2022/05/28 07:12:49;;;;;;;19.58;3.20;;;;;;;;;;4926802;29;20051;-70
2022/05/28 07:15:17;;;;;;;17.60;3.60;;;;;;;;;;4943374;29;20059;-70
2022/05/28 07:17:44;;;;;;;24.40;3.25;;;;;;;;;;4932163;29;20110;-70
2022/05/28 07:20:12;;;;;;;20.45;2.95;;;;;;;;;;4927708;29;20055;-70
2022/05/28 07:22:40;;;;;;;19.08;3.10;;;;;;;;;;4932728;29;20110;-70
2022/05/28 07:25:08;;;;;;;25.02;3.40;;;;;;;;;;4931542;29;20110;-70
2022/05/28 07:27:36;;;;;;;17.25;2.70;;;;;;;;;;4931149;29;20055;-70
2022/05/28 07:30:03;;;;;;;22.08;3.15;;;;;;;;;;4927175;29;20063;-70
2022/05/28 07:32:30;;;;;;;26.38;4.13;;;;;;;;;;4932510;29;20050;-69
2022/05/28 07:34:58;;;;;;;15.13;2.60;;;;;;;;;;4924204;29;20063;-70
2022/05/28 07:37:25;;;;;;;19.70;3.65;;;;;;;;;;4910221;28;20253;-70
2022/05/28 07:39:53;;;;;;;16.27;2.50;;;;;;;;;;4930758;29;20058;-68
2022/05/28 07:42:21;;;;;;;17.95;3.20;;;;;;;;;;4940789;29;20074;-69
2022/05/28 07:44:48;;;;;;;23.15;2.95;;;;;;;;;;4925635;29;20121;-69
2022/05/28 07:47:16;;;;;;;20.33;3.22;;;;;;;;;;4926660;29;20051;-69
2022/05/28 07:49:43;;;;;;;19.05;3.65;;;;;;;;;;4927909;29;20055;-69
2022/05/28 07:52:10;;;;;;;21.40;3.40;;;;;;;;;;4928862;29;20495;-68
2022/05/28 07:54:37;;;;;;;16.48;2.70;;;;;;;;;;4936536;29;20055;-69
2022/05/28 07:57:06;;;;;;;20.75;4.22;;;;;;;;;;4923259;29;20134;-69
2022/05/28 07:59:34;;;;;;;17.30;3.25;;;;;;;;;;4912350;29;20047;-69
2022/05/28 08:02:01;;;;;;;20.52;2.67;;;;;;;;;;4916661;29;20056;-69
2022/05/28 08:04:28;;;;;;;16.92;3.35;;;;;;;;;;4915669;29;20051;-69
2022/05/28 08:06:55;;;;;;;17.55;3.08;;;;;;;;;;4913328;29;20221;-69
2022/05/28 08:09:22;;;;;;;21.10;3.38;;;;;;;;;;4928416;29;20051;-69
2022/05/28 08:11:50;;;;;;;18.80;3.80;;;;;;;;;;4927527;29;20090;-69
2022/05/28 08:14:18;;;;;;;23.85;3.38;;;;;;;;;;4936098;29;20058;-69
2022/05/28 08:16:45;;;;;;;19.42;2.92;;;;;;;;;;4928688;29;20059;-69
2022/05/28 08:19:13;;;;;;;18.75;3.03;;;;;;;;;;4919977;29;20102;-69
2022/05/28 08:24:25;;;;;;;20.17;2.65;;;;;;;;;;4926309;29;20062;-69
2022/05/28 08:26:52;;;;;;;20.30;3.08;;;;;;;;;;4944714;29;20478;-68
2022/05/28 08:29:22;;;;;;;19.15;2.85;;;;;;;;;;4934210;29;20047;-69
2022/05/28 08:31:49;;;;;;;19.63;3.33;;;;;;;;;;4935818;28;20050;-69
2022/05/28 08:34:16;;;;;;;16.80;2.42;;;;;;;;;;4928863;29;20142;-70
2022/05/28 08:36:44;;;;;;;17.88;3.15;;;;;;;;;;4934053;29;20059;-69
2022/05/28 08:39:11;;;;;;;17.63;3.20;;;;;;;;;;4929307;29;21520;-69
2022/05/28 08:41:42;;;;;;;19.73;3.35;;;;;;;;;;4929056;29;20408;-69
2022/05/28 08:44:15;;;;;;;15.98;3.17;;;;;;;;;;4924377;29;20055;-70
2022/05/28 08:46:44;;;;;;;14.98;3.38;;;;;;;;;;4930710;29;20094;-70
2022/05/28 08:49:13;;;;;;;16.92;2.92;;;;;;;;;;4946364;29;20055;-69
2022/05/28 08:51:43;;;;;;;17.75;3.45;;;;;;;;;;4924889;29;20169;-69
2022/05/28 08:54:12;;;;;;;21.70;3.72;;;;;;;;;;4924411;29;20052;-69
2022/05/28 08:56:40;;;;;;;22.63;3.35;;;;;;;;;;4921529;29;20051;-70
2022/05/28 08:59:08;;;;;;;18.75;3.30;;;;;;;;;;4913448;29;20052;-70
2022/05/28 09:01:38;;;;;;;22.58;3.17;;;;;;;;;;4913263;29;20051;-70
2022/05/28 09:04:07;;;;;;;18.08;3.40;;;;;;;;;;4914282;29;20061;-70
2022/05/28 09:06:38;;;;;;;22.02;3.40;;;;;;;;;;4914257;29;20066;-70
2022/05/28 09:09:07;;;;;;;19.13;3.30;;;;;;;;;;4911857;29;20051;-70
2022/05/28 09:11:35;;;;;;;23.48;3.53;;;;;;;;;;4912355;29;20051;-70
2022/05/28 09:14:09;;;;;;;12.73;2.83;;;;;;;;;;4908996;29;20115;-70
2022/05/28 09:16:37;;;;;;;14.77;2.78;;;;;;;;;;4908794;29;20059;-70
2022/05/28 09:19:08;;;;;;;21.80;3.83;;;;;;;;;;4908754;29;20048;-70
2022/05/28 09:21:35;;;;;;;18.65;3.28;;;;;;;;;;4910222;29;20503;-70
2022/05/28 09:24:06;;;;;;;24.00;3.42;;;;;;;;;;4908928;29;20148;-70
2022/05/28 09:26:37;;;;;;;20.10;3.40;;;;;;;;;;4908852;29;20062;-70
2022/05/28 09:29:15;;;;;;;20.25;3.15;;;;;;;;;;4910461;29;20063;-70
2022/05/28 09:31:50;;;;;;;17.73;3.33;;;;;;;;;;4907049;29;20062;-70
2022/05/28 09:34:26;;;;;;;14.73;2.55;;;;;;;;;;4910507;29;20063;-70
2022/05/28 09:36:57;;;;;;;18.30;3.20;;;;;;;;;;4921645;29;20071;-70
2022/05/28 09:39:36;;;;;;;20.55;3.00;;;;;;;;;;4909832;29;20510;-70
2022/05/28 09:42:07;;;;;;;20.52;3.47;;;;;;;;;;4907636;29;20090;-69
2022/05/28 09:44:41;;;;;;;15.35;2.78;;;;;;;;;;4908621;29;20115;-70
2022/05/28 09:47:10;;;;;;;17.17;2.88;;;;;;;;;;4908338;29;20055;-70
2022/05/28 09:49:48;;;;;;;18.95;3.15;;;;;;;;;;4910477;29;20044;-70
2022/05/28 09:52:21;;;;;;;15.82;3.03;;;;;;;;;;4909599;29;20052;-70
2022/05/28 09:54:48;;;;;;;19.88;2.78;;;;;;;;;;4907298;29;20511;-69
2022/05/28 09:57:22;;;;;;;18.52;3.65;;;;;;;;;;4908183;29;20051;-68
2022/05/28 09:59:52;;;;;;;18.00;3.05;;;;;;;;;;4908214;29;20059;-69
2022/05/28 10:02:21;;;;;;;15.88;2.85;;;;;;;;;;4879268;28;20067;-69
2022/05/28 10:04:53;;;;;;;15.55;3.17;;;;;;;;;;4899912;29;20125;-68
2022/05/28 10:07:31;;;;;;;12.88;2.70;;;;;;;;;;4898147;29;20060;-68
2022/05/28 10:09:58;;;;;;;15.88;3.08;;;;;;;;;;4897760;29;20153;-69
2022/05/28 10:12:26;;;;;;;13.88;2.83;;;;;;;;;;4897166;29;20052;-69
2022/05/28 10:15:04;;;;;;;17.88;2.80;;;;;;;;;;4901592;29;20063;-68
2022/05/28 10:17:33;;;;;;;18.35;3.00;;;;;;;;;;4900603;29;20056;-68
2022/05/28 10:20:03;;;;;;;17.90;2.88;;;;;;;;;;4901805;29;20052;-69
2022/05/28 10:22:31;;;;;;;13.45;2.65;;;;;;;;;;4902981;29;20068;-69
2022/05/28 10:25:00;;;;;;;16.27;2.78;;;;;;;;;;4902837;29;21035;-69
2022/05/28 10:27:33;;;;;;;16.98;2.60;;;;;;;;;;4902202;29;20059;-69
2022/05/28 10:30:02;;;;;;;16.42;2.88;;;;;;;;;;4898890;29;21450;-68
2022/05/28 10:32:31;;;;;;;15.82;2.60;;;;;;;;;;4900818;29;20055;-68
2022/05/28 10:35:00;;;;;;;16.73;2.55;;;;;;;;;;4901136;29;20056;-68
2022/05/28 10:37:28;;;;;;;16.95;3.30;;;;;;;;;;4904708;29;20063;-68
2022/05/28 10:40:04;;;;;;;13.10;3.25;;;;;;;;;;4907279;29;20764;-68
2022/05/28 10:42:31;;;;;;;23.10;3.58;;;;;;;;;;4909059;29;20076;-68
2022/05/28 10:44:58;;;;;;;16.33;2.97;;;;;;;;;;4906582;29;20099;-69
2022/05/28 10:47:35;;;;;;;19.63;3.15;;;;;;;;;;4907041;29;20067;-68
2022/05/28 10:50:11;;;;;;;18.10;3.47;;;;;;;;;;4906507;29;20055;-68
2022/05/28 10:52:45;;;;;;;17.83;3.67;;;;;;;;;;4905416;29;20064;-68
2022/05/28 10:55:14;;;;;;;16.33;2.70;;;;;;;;;;4904833;29;20055;-68
2022/05/28 10:57:50;;;;;;;11.77;2.25;;;;;;;;;;4903837;29;20064;-68
2022/05/28 11:00:20;;;;;;;12.13;2.30;;;;;;;;;;4904153;29;20589;-68
2022/05/28 11:03:05;;;;;;;12.15;2.20;;;;;;;;;;4905703;29;20158;-68
2022/05/28 11:05:47;;;;;;;11.50;2.22;;;;;;;;;;4890061;29;20064;-68
2022/05/28 11:08:19;;;;;;;15.00;2.45;;;;;;;;;;4906494;29;20060;-68
2022/05/28 11:10:55;;;;;;;14.43;2.42;;;;;;;;;;4906373;29;20099;-68
2022/05/28 11:13:33;;;;;;;14.93;2.40;;;;;;;;;;4905559;29;20085;-68
2022/05/28 11:16:11;;;;;;;12.30;2.30;;;;;;;;;;4903990;29;20070;-68
2022/05/28 11:18:49;;;;;;;15.35;2.38;;;;;;;;;;4909180;29;20514;-69
2022/05/28 11:21:25;;;;;;;17.13;2.92;;;;;;;;;;4907235;29;20056;-68
2022/05/28 11:24:13;;;;;;;14.45;2.78;;;;;;;;;;4910301;29;20135;-69
2022/05/28 11:26:45;;;;;;;14.30;2.70;;;;;;;;;;4906494;29;21906;-68
2022/05/28 11:29:26;;;;;;;13.18;3.10;;;;;;;;;;4909180;29;20056;-68
2022/05/28 11:31:55;;;;;;;17.63;3.22;;;;;;;;;;4912482;29;20060;-68
2022/05/28 11:34:26;;;;;;;29.88;11.95;;;;;;;;;;4909808;29;20484;-68
2022/05/28 11:36:56;;;;;;;15.00;2.40;;;;;;;;;;4908494;29;20071;-68
2022/05/28 11:39:26;;;;;;;16.63;2.78;;;;;;;;;;4910231;29;20063;-68
2022/05/28 11:41:58;;;;;;;18.13;2.90;;;;;;;;;;4908200;29;21195;-68
2022/05/28 11:44:28;;;;;;;15.85;3.22;;;;;;;;;;4910723;29;20134;-68
2022/05/28 11:46:58;;;;;;;12.40;2.58;;;;;;;;;;4906513;29;20142;-68
2022/05/28 11:52:18;;;;;;;15.35;2.58;;;;;;;;;;4910602;29;20463;-68
2022/05/28 11:54:48;;;;;;;16.97;4.27;;;;;;;;;;4909741;29;20062;-68
2022/05/28 11:57:21;;;;;;;15.38;3.08;;;;;;;;;;4908983;29;20131;-68
2022/05/28 11:59:48;;;;;;;;;;;;;;;;;;4915194;29;20412;-68
2022/05/28 12:02:19;;;;;;;12.15;2.13;;;;;;;;;;4911289;29;19926;-68
2022/05/28 12:04:46;;;;;;;18.58;3.17;;;;;;;;;;4913736;29;20066;-68
2022/05/28 12:07:15;;;;;;;13.35;2.40;;;;;;;;;;4910932;29;20432;-68
2022/05/28 12:09:44;;;;;;;15.85;3.17;;;;;;;;;;4911056;29;20499;-68
2022/05/28 12:12:18;;;;;;;16.40;2.75;;;;;;;;;;4911449;29;20055;-68
2022/05/28 12:14:47;;;;;;;14.90;2.63;;;;;;;;;;4907102;29;20063;-68
2022/05/28 12:17:25;;;;;;;11.07;2.00;;;;;;;;;;4891520;29;20059;-68
2022/05/28 12:19:53;;;;;;;13.77;2.55;;;;;;;;;;4889996;29;20107;-68
2022/05/28 12:22:27;;;;;;;15.95;2.53;;;;;;;;;;4890164;29;21836;-68
2022/05/28 12:24:59;;;;;;;12.40;2.67;;;;;;;;;;4898057;29;20051;-68
2022/05/28 12:27:36;;;;;;;10.20;2.08;;;;;;;;;;4917050;29;20059;-68
2022/05/28 12:30:08;;;;;;;11.15;2.35;;;;;;;;;;4902077;29;20052;-68
2022/05/28 12:32:43;;;;;;;13.73;2.63;;;;;;;;;;4908974;29;20224;-68
2022/05/28 12:35:23;;;;;;;12.45;2.90;;;;;;;;;;4912629;29;20048;-68
2022/05/28 12:37:53;;;;;;;12.38;2.38;;;;;;;;;;4923458;29;20060;-68
2022/05/28 12:40:26;;;;;;;13.85;2.60;;;;;;;;;;4909073;29;20060;-68
2022/05/28 12:42:55;;;;;;;12.70;2.15;;;;;;;;;;4927337;29;20058;-68
2022/05/28 12:45:34;;;;;;;10.98;2.03;;;;;;;;;;4905582;29;20056;-68
2022/05/28 12:48:05;;;;;;;10.75;2.47;;;;;;;;;;4927964;29;20061;-68
2022/05/28 12:50:37;;;;;;;11.82;2.53;;;;;;;;;;4910913;29;20525;-68
2022/05/28 12:53:07;;;;;;;11.45;2.03;;;;;;;;;;4902224;29;20052;-68
2022/05/28 12:55:36;;;;;;;11.68;2.55;;;;;;;;;;4925166;29;20333;-68
2022/05/28 12:58:07;;;;;;;12.40;2.28;;;;;;;;;;4926577;29;20179;-68
2022/05/28 13:00:43;;;;;;;14.15;2.38;;;;;;;;;;4927055;29;20043;-69
2022/05/28 13:03:10;;;;;;;14.43;2.50;;;;;;;;;;4913019;29;20110;-69
2022/05/28 13:05:39;;;;;;;12.48;2.22;;;;;;;;;;4910709;29;20048;-69
2022/05/28 13:08:09;;;;;;;11.55;2.28;;;;;;;;;;4906566;29;20158;-68
2022/05/28 13:10:36;;;;;;;10.93;2.63;;;;;;;;;;4921134;29;20131;-68
2022/05/28 13:13:18;;;;;;;8.90;1.80;;;;;;;;;;4938495;28;20062;-69
2022/05/28 13:16:04;;;;;;;8.85;1.90;;;;;;;;;;4926617;29;20055;-68
2022/05/28 13:18:43;;;;;;;9.25;1.90;;;;;;;;;;4945719;29;20059;-68
2022/05/28 13:21:18;;;;;;;8.90;1.95;;;;;;;;;;4945532;29;20051;-68
2022/05/28 13:24:01;;;;;;;12.68;2.70;;;;;;;;;;4925444;29;20051;-68
2022/05/28 13:26:40;;;;;;;11.07;1.90;;;;;;;;;;4944807;29;20061;-69
2022/05/28 13:29:19;;;;;;;16.75;2.50;;;;;;;;;;4945157;29;20047;-68
2022/05/28 13:31:50;;;;;;;12.25;2.30;;;;;;;;;;4947810;28;20047;-68
2022/05/28 13:34:23;;;;;;;12.45;2.17;;;;;;;;;;4929735;29;20554;-68
2022/05/28 13:36:50;;;;;;;11.50;2.30;;;;;;;;;;4928196;29;20067;-68
2022/05/28 13:39:17;;;;;;;9.20;2.17;;;;;;;;;;4929768;29;20442;-68
2022/05/28 13:41:46;;;;;;;11.57;2.30;;;;;;;;;;4928184;29;20063;-68
2022/05/28 13:44:15;;;;;;;10.82;2.38;;;;;;;;;;4926676;29;20494;-68
2022/05/28 13:46:48;;;;;;;9.77;2.17;;;;;;;;;;4945080;29;20106;-68
2022/05/28 13:49:16;;;;;;;13.65;2.40;;;;;;;;;;4924207;29;20425;-68
2022/05/28 13:51:48;;;;;;;9.13;2.17;;;;;;;;;;4930547;29;20063;-68
2022/05/28 13:54:15;;;;;;;11.43;2.17;;;;;;;;;;4924970;29;20556;-68
2022/05/28 13:56:51;;;;;;;11.52;2.05;;;;;;;;;;4934407;29;20118;-68
2022/05/28 13:59:28;;;;;;;12.20;2.10;;;;;;;;;;4946632;29;20048;-68
2022/05/28 14:01:57;;;;;;;9.45;1.90;;;;;;;;;;4942250;29;20452;-68
2022/05/28 14:04:25;;;;;;;10.02;1.83;;;;;;;;;;4927942;29;20102;-68
2022/05/28 14:06:54;;;;;;;10.50;2.10;;;;;;;;;;4945903;29;20055;-68
2022/05/28 14:09:23;;;;;;;10.65;1.88;;;;;;;;;;4937810;28;20201;-68
2022/05/28 14:11:51;;;;;;;10.35;1.88;;;;;;;;;;4943923;28;20066;-68
2022/05/28 14:14:19;;;;;;;12.63;2.20;;;;;;;;;;4946776;29;20055;-68
2022/05/28 14:16:48;;;;;;;8.88;2.10;;;;;;;;;;4933871;29;20162;-68
2022/05/28 14:19:20;;;;;;;9.80;2.05;;;;;;;;;;4929813;29;20067;-68
2022/05/28 14:21:50;;;;;;;15.17;2.53;;;;;;;;;;4934679;29;20055;-68
2022/05/28 14:24:20;;;;;;;8.98;2.30;;;;;;;;;;4948828;29;20114;-69
2022/05/28 14:26:49;;;;;;;9.85;2.42;;;;;;;;;;4934294;28;20054;-68
2022/05/28 14:29:17;;;;;;;12.30;2.15;;;;;;;;;;4948236;29;20122;-68
2022/05/28 14:31:45;;;;;;;8.88;1.88;;;;;;;;;;4933574;29;20126;-68
2022/05/28 14:34:12;;;;;;;7.97;1.98;;;;;;;;;;4931910;29;20424;-68
2022/05/28 14:36:49;;;;;;;18.70;2.55;;;;;;;;;;4931445;29;20135;-68
2022/05/28 14:39:17;;;;;;;13.10;2.55;;;;;;;;;;4933806;29;20058;-68
2022/05/28 14:41:47;;;;;;;11.40;2.22;;;;;;;;;;4928564;29;20055;-68
2022/05/28 14:44:15;;;;;;;13.35;2.00;;;;;;;;;;4931658;29;20059;-68
2022/05/28 14:46:43;;;;;;;8.45;2.08;;;;;;;;;;4930394;29;20428;-68
2022/05/28 14:49:18;;;;;;;13.07;2.13;;;;;;;;;;4929384;29;20422;-68
2022/05/28 14:51:47;;;;;;;14.25;2.25;;;;;;;;;;4943961;29;20075;-67